Kirby, Arkansas
Current Conditions -  °F | °C
As of 9:23 PM on Saturday 22 Nov 2014 (Local Time) from KMWT Reporting Station
Haze Haze  
Wind Chill: 55°   Ceiling: 2200
Heat Index: 55°   Visibility: 4mi
Dew Point: 53°   Wind: 0mph
Humidity: 93%   Direction: NA
Pressure: 29.87"   Gusts: NA
Location:  34.25°N, 93.64°W
Report Text: KMWT 230323Z AUTO 00000KT 4SM BR BKN022 OVC042 13/12 A2987 RMK AO2 T01280117
Loading
Personal Weather Stations






























Interactive Weather Map New forecast layout! Learn more

10-Day Weather Forecast

Advertisements
Track Severe Weather on mobile